Time;durP1;ratioP1;P1;durP2;ratioP2;P2;SDS_P1;SDS_P2;PMS_P1;PMS_P2;Temp;Humidity;BMP_temperature;BMP_pressure;BME280_temperature;BME280_humidity;BME280_pressure;Samples;Min_cycle;Max_cycle;Signal;HPM_P1;HPM_P2
2022/02/08 00:01:25;;;;;;;;;;;7.40;99.90;;;;;;5026772;28;20025;-44
2022/02/08 00:03:50;;;;;;;14.13;4.25;;;7.40;99.90;;;;;;5026946;28;19928;-43
2022/02/08 00:09:00;;;;;;;12.15;4.10;;;7.40;99.90;;;;;;5016897;28;20041;-43
2022/02/08 00:11:26;;;;;;;8.90;4.60;;;7.40;99.90;;;;;;5025566;28;20025;-43
2022/02/08 00:13:51;;;;;;;13.60;4.45;;;7.40;99.90;;;;;;5027396;28;20096;-43
2022/02/08 00:16:17;;;;;;;10.13;4.05;;;7.40;99.90;;;;;;5026006;28;20061;-42
2022/02/08 00:18:42;;;;;;;10.15;3.95;;;7.30;99.90;;;;;;5026796;28;20025;-43
2022/02/08 00:21:08;;;;;;;10.73;4.63;;;7.30;99.90;;;;;;5026809;28;20084;-43
2022/02/08 00:23:34;;;;;;;12.48;4.65;;;7.30;99.90;;;;;;5025509;28;20060;-44
2022/02/08 00:25:59;;;;;;;15.25;4.70;;;7.30;99.90;;;;;;5026753;28;20504;-43
2022/02/08 00:28:25;;;;;;;13.30;4.65;;;7.30;99.90;;;;;;5025789;28;20068;-43
2022/02/08 00:30:50;;;;;;;14.98;5.75;;;7.30;99.90;;;;;;5025907;28;20026;-44
2022/02/08 00:33:15;;;;;;;11.27;4.70;;;7.20;99.90;;;;;;5025435;28;20033;-44
2022/02/08 00:35:41;;;;;;;15.27;5.43;;;7.30;99.90;;;;;;5026584;28;20520;-43
2022/02/08 00:38:07;;;;;;;13.88;4.93;;;7.30;99.90;;;;;;5025767;28;20025;-43
2022/02/08 00:40:32;;;;;;;13.75;5.25;;;7.30;99.90;;;;;;5026082;28;20048;-43
2022/02/08 00:43:00;;;;;;;11.25;5.03;;;7.30;99.90;;;;;;5026431;28;20025;-43
2022/02/08 00:45:39;;;;;;;12.73;4.85;;;7.30;99.90;;;;;;5025703;28;20044;-44
2022/02/08 00:48:26;;;;;;;10.57;4.53;;;7.30;99.90;;;;;;5026585;28;20041;-43
2022/02/08 00:50:52;;;;;;;15.40;5.07;;;7.30;99.90;;;;;;5026428;28;20083;-43
2022/02/08 00:53:18;;;;;;;12.05;4.97;;;7.30;99.90;;;;;;5024813;28;20045;-44
2022/02/08 00:55:44;;;;;;;11.63;5.00;;;7.30;99.90;;;;;;5026138;28;20492;-44
2022/02/08 00:58:09;;;;;;;15.50;5.68;;;7.30;99.90;;;;;;5025575;28;20025;-43
2022/02/08 01:00:35;;;;;;;18.10;5.90;;;7.30;99.90;;;;;;5024677;28;20022;-43
2022/02/08 01:03:03;;;;;;;14.30;6.20;;;7.30;99.90;;;;;;5025980;28;20057;-44
2022/02/08 01:05:29;;;;;;;12.93;5.65;;;7.30;99.90;;;;;;5024691;28;20350;-44
2022/02/08 01:07:54;;;;;;;19.05;6.88;;;7.40;99.90;;;;;;5025645;28;20033;-44
2022/02/08 01:10:22;;;;;;;15.02;6.10;;;7.30;99.90;;;;;;5025503;28;20025;-43
2022/02/08 01:12:49;;;;;;;13.57;5.95;;;7.30;99.90;;;;;;5025131;28;20036;-44
2022/02/08 01:15:16;;;;;;;18.50;6.80;;;7.30;99.90;;;;;;5024909;28;20432;-43
2022/02/08 01:17:43;;;;;;;11.93;6.20;;;7.20;99.90;;;;;;5025833;28;20025;-44
2022/02/08 01:20:18;;;;;;;15.05;5.95;;;7.30;99.90;;;;;;5024914;28;20029;-44
2022/02/08 01:22:44;;;;;;;12.82;6.70;;;7.30;99.90;;;;;;5026128;28;20052;-44
2022/02/08 01:25:18;;;;;;;15.43;6.82;;;7.30;99.90;;;;;;5025430;28;20112;-43
2022/02/08 01:27:50;;;;;;;14.65;7.32;;;7.30;99.90;;;;;;5024978;28;20140;-43
2022/02/08 01:30:28;;;;;;;18.20;8.80;;;7.30;99.90;;;;;;5024718;28;20778;-42
2022/02/08 01:33:32;;;;;;;14.90;8.68;;;7.30;99.90;;;;;;5025954;28;20036;-44
2022/02/08 01:36:08;;;;;;;16.17;8.70;;;7.30;99.90;;;;;;5024546;28;20064;-42
2022/02/08 01:38:35;;;;;;;15.10;9.13;;;7.30;99.90;;;;;;5006098;28;20060;-43
2022/02/08 01:41:23;;;;;;;17.20;9.73;;;7.30;99.90;;;;;;5021760;28;20444;-43
2022/02/08 01:46:51;;;;;;;14.05;8.82;;;7.40;99.90;;;;;;5025317;28;20493;-45
2022/02/08 01:51:49;;;;;;;17.20;9.60;;;7.40;99.90;;;;;;5025582;28;20029;-43
2022/02/08 01:54:14;;;;;;;16.27;10.50;;;7.40;99.90;;;;;;5025583;28;20939;-43
2022/02/08 01:56:40;;;;;;;18.00;10.77;;;7.40;99.90;;;;;;5024725;28;20111;-44
2022/02/08 01:59:05;;;;;;;19.73;11.15;;;7.40;99.90;;;;;;5025722;28;20025;-43
2022/02/08 02:01:31;;;;;;;17.90;12.18;;;7.40;99.90;;;;;;5024953;28;20056;-42
2022/02/08 02:03:56;;;;;;;18.52;12.38;;;7.40;99.90;;;;;;5024835;28;20045;-44
2022/02/08 02:06:23;;;;;;;15.02;10.90;;;7.50;99.90;;;;;;5024474;28;20080;-43
2022/02/08 02:08:48;;;;;;;16.45;11.95;;;7.40;99.90;;;;;;5025052;28;20033;-42
2022/02/08 02:11:14;;;;;;;20.38;12.68;;;7.50;99.90;;;;;;5025242;28;20025;-44
2022/02/08 02:13:45;;;;;;;18.98;11.98;;;7.50;99.90;;;;;;5025744;28;20037;-42
2022/02/08 02:16:14;;;;;;;18.50;13.00;;;7.50;99.90;;;;;;5024370;28;20114;-43
2022/02/08 02:18:39;;;;;;;20.75;14.07;;;7.50;99.90;;;;;;5025527;28;20203;-43
2022/02/08 02:21:05;;;;;;;17.73;12.38;;;7.50;99.90;;;;;;5025362;28;20025;-43
2022/02/08 02:23:32;;;;;;;18.33;13.25;;;7.60;99.90;;;;;;5023912;28;20041;-43
2022/02/08 02:25:58;;;;;;;19.52;13.02;;;7.60;99.90;;;;;;5025099;28;20038;-42
2022/02/08 02:28:25;;;;;;;17.67;12.57;;;7.60;99.90;;;;;;5024309;28;20033;-43
2022/02/08 02:30:51;;;;;;;17.05;12.65;;;7.60;99.90;;;;;;5024285;28;20026;-43
2022/02/08 02:33:17;;;;;;;19.80;14.15;;;7.70;99.90;;;;;;5024356;28;20036;-43
2022/02/08 02:35:44;;;;;;;18.00;13.63;;;7.70;99.90;;;;;;5025048;28;20136;-43
2022/02/08 02:38:10;;;;;;;22.50;13.93;;;7.70;99.90;;;;;;5023715;28;20112;-43
2022/02/08 02:40:40;;;;;;;22.27;13.95;;;7.80;99.90;;;;;;5025171;28;20571;-43
2022/02/08 02:43:07;;;;;;;21.08;16.33;;;7.80;99.90;;;;;;5024446;28;20501;-44
2022/02/08 02:45:33;;;;;;;19.42;13.57;;;7.80;99.90;;;;;;5004499;28;20041;-43
2022/02/08 02:47:59;;;;;;;19.05;13.93;;;7.90;99.90;;;;;;5019173;28;20034;-43
2022/02/08 02:50:25;;;;;;;21.75;15.95;;;7.90;99.90;;;;;;5023940;28;20065;-44
2022/02/08 02:52:51;;;;;;;19.60;14.88;;;7.90;99.90;;;;;;5024081;28;20029;-45
2022/02/08 02:55:17;;;;;;;17.40;14.25;;;8.00;99.90;;;;;;5024482;28;20033;-44
2022/02/08 02:57:46;;;;;;;22.25;15.85;;;8.00;99.90;;;;;;5027663;28;20033;-43
2022/02/08 03:00:15;;;;;;;22.23;16.15;;;8.00;99.90;;;;;;5027860;28;20030;-43
2022/02/08 03:02:49;;;;;;;23.63;15.85;;;8.00;99.90;;;;;;5027650;28;20040;-44
2022/02/08 03:05:50;;;;;;;18.30;14.48;;;8.10;99.90;;;;;;5027123;28;20119;-43
2022/02/08 03:19:02;;;;;;;23.88;17.98;;;8.20;99.90;;;;;;5027414;28;20072;-43
2022/02/08 03:21:28;;;;;;;24.13;16.98;;;8.20;99.90;;;;;;5027332;28;20049;-44
2022/02/08 03:23:53;;;;;;;29.35;20.67;;;8.20;99.90;;;;;;5027715;28;20088;-44
2022/02/08 03:26:19;;;;;;;29.65;19.77;;;8.20;99.90;;;;;;5026390;28;20017;-43
2022/02/08 03:28:44;;;;;;;24.13;17.50;;;8.30;99.90;;;;;;5027671;28;20081;-43
2022/02/08 03:31:10;;;;;;;25.35;18.85;;;8.30;99.90;;;;;;5027038;28;20574;-44
2022/02/08 03:33:35;;;;;;;23.48;18.10;;;8.30;99.90;;;;;;5026523;28;20029;-43
2022/02/08 03:36:01;;;;;;;30.10;19.67;;;8.30;99.90;;;;;;5028077;28;20113;-44
2022/02/08 03:38:40;;;;;;;24.25;17.83;;;8.30;99.90;;;;;;5026613;28;20048;-43
2022/02/08 03:41:08;;;;;;;24.35;18.17;;;8.40;99.90;;;;;;5015786;28;20037;-43
2022/02/08 03:43:36;;;;;;;29.55;20.35;;;8.40;99.90;;;;;;5027474;28;20033;-44
2022/02/08 03:46:07;;;;;;;27.90;19.35;;;8.40;99.90;;;;;;5027361;28;20041;-42
2022/02/08 03:48:35;;;;;;;32.42;21.35;;;8.40;99.90;;;;;;5026633;28;20045;-44
2022/02/08 03:51:11;;;;;;;24.95;18.83;;;8.50;99.90;;;;;;5027551;28;20044;-43
2022/02/08 03:53:39;;;;;;;29.25;20.98;;;8.50;99.90;;;;;;5027292;28;20035;-43
2022/02/08 03:56:06;;;;;;;27.67;20.13;;;8.50;99.90;;;;;;5026524;28;20247;-44
2022/02/08 03:58:32;;;;;;;29.83;20.35;;;8.50;99.90;;;;;;5026927;28;20025;-44
2022/02/08 04:03:54;;;;;;;23.05;18.10;;;8.50;99.90;;;;;;5026844;28;20140;-43
2022/02/08 04:06:20;;;;;;;26.40;18.73;;;8.60;99.90;;;;;;5025396;28;20060;-44
2022/02/08 04:08:45;;;;;;;26.98;19.98;;;8.60;99.90;;;;;;5025288;28;20109;-44
2022/02/08 04:11:13;;;;;;;26.90;18.98;;;8.60;99.90;;;;;;5026344;28;20060;-44
2022/02/08 04:13:51;;;;;;;23.35;18.35;;;8.60;99.90;;;;;;5027051;28;20489;-43
2022/02/08 04:16:27;;;;;;;30.17;19.63;;;8.70;99.90;;;;;;5025342;28;20029;-44
2022/02/08 04:19:48;;;;;;;24.27;17.90;;;8.70;99.90;;;;;;5026872;28;20033;-44
2022/02/08 04:32:48;;;;;;;24.10;17.60;;;8.80;99.90;;;;;;5027158;28;20067;-44
2022/02/08 04:40:46;;;;;;;28.55;18.77;;;8.90;99.90;;;;;;5026089;28;20041;-44
2022/02/08 04:43:35;;;;;;;23.98;17.45;;;8.90;99.90;;;;;;5015766;28;20032;-42
2022/02/08 04:46:13;;;;;;;25.00;18.05;;;8.90;99.90;;;;;;5026087;28;20100;-42
2022/02/08 04:48:53;;;;;;;22.83;15.57;;;9.00;99.90;;;;;;5026753;28;20183;-43
2022/02/08 04:51:34;;;;;;;21.65;15.10;;;8.90;99.90;;;;;;5024829;28;20791;-43
2022/02/08 05:26:28;;;;;;;24.92;17.70;;;9.00;99.90;;;;;;5025838;28;20341;-42
2022/02/08 05:27:14;;;;;;;22.85;15.82;;;9.00;99.90;;;;;;5024783;28;20095;-42
2022/02/08 05:35:25;;;;;;;22.30;15.70;;;9.00;99.90;;;;;;5016574;28;20048;-44
2022/02/08 05:43:37;;;;;;;18.77;14.18;;;9.00;99.90;;;;;;5024929;28;20158;-43
2022/02/08 05:46:43;;;;;;;15.18;12.43;;;9.00;99.90;;;;;;5025779;28;20056;-44
2022/02/08 05:49:02;;;;;;;15.52;12.23;;;9.00;99.90;;;;;;5024247;28;20038;-43
2022/02/08 05:51:45;;;;;;;15.57;13.05;;;9.00;99.90;;;;;;5024889;28;20128;-43
2022/02/08 05:54:10;;;;;;;17.75;12.10;;;9.00;99.90;;;;;;5024176;28;20057;-43
2022/02/08 05:56:36;;;;;;;17.58;12.45;;;9.00;99.90;;;;;;5025553;28;20045;-43
2022/02/08 05:59:01;;;;;;;16.02;12.60;;;9.00;99.90;;;;;;5025741;28;20030;-43
2022/02/08 06:01:30;;;;;;;15.90;11.98;;;9.00;99.90;;;;;;5024728;28;20057;-43
2022/02/08 06:03:59;;;;;;;14.65;11.75;;;9.00;99.90;;;;;;5025232;28;20038;-43
2022/02/08 06:06:25;;;;;;;21.35;12.63;;;9.00;99.90;;;;;;5024223;28;20029;-43
2022/02/08 06:08:52;;;;;;;18.58;12.25;;;9.00;99.90;;;;;;5024691;28;20061;-43
2022/02/08 06:11:18;;;;;;;18.75;12.55;;;8.90;99.90;;;;;;5024779;28;20025;-44
2022/02/08 06:13:43;;;;;;;15.32;11.32;;;8.90;99.90;;;;;;5025685;28;20460;-44
2022/02/08 06:16:16;;;;;;;12.65;10.40;;;8.90;99.90;;;;;;5024382;28;20040;-43
2022/02/08 06:18:44;;;;;;;17.02;11.52;;;8.90;99.90;;;;;;5025010;28;20021;-43
2022/02/08 06:21:10;;;;;;;13.85;10.38;;;8.80;99.90;;;;;;5025139;28;20030;-42
2022/02/08 06:23:36;;;;;;;11.70;8.70;;;8.90;99.90;;;;;;5024987;28;20113;-43
2022/02/08 06:26:01;;;;;;;13.10;9.18;;;8.80;99.90;;;;;;5025635;28;20040;-44
2022/02/08 06:28:27;;;;;;;13.98;9.68;;;8.80;99.90;;;;;;5025405;28;20907;-44
2022/02/08 06:30:52;;;;;;;14.00;10.02;;;8.80;99.90;;;;;;5024845;28;20358;-44
2022/02/08 06:33:19;;;;;;;11.60;8.68;;;8.80;99.90;;;;;;5029120;28;20030;-43
2022/02/08 06:35:45;;;;;;;15.93;9.18;;;8.80;99.90;;;;;;5029232;28;20022;-44
2022/02/08 06:38:13;;;;;;;12.40;8.25;;;8.80;99.90;;;;;;5028003;28;20041;-43
2022/02/08 06:40:41;;;;;;;10.55;7.53;;;8.80;99.90;;;;;;5028804;28;20040;-43
2022/02/08 06:43:06;;;;;;;16.65;9.18;;;8.80;99.90;;;;;;5028468;28;20053;-43
2022/02/08 06:45:33;;;;;;;13.82;9.73;;;8.80;99.90;;;;;;5028345;28;20025;-44
2022/02/08 06:48:00;;;;;;;11.23;7.65;;;8.80;99.90;;;;;;5029067;28;20479;-42
2022/02/08 06:50:25;;;;;;;12.70;7.97;;;8.80;99.90;;;;;;5027449;28;20033;-44
2022/02/08 06:52:51;;;;;;;14.77;7.75;;;8.80;99.90;;;;;;5029342;28;20571;-43
2022/02/08 06:55:20;;;;;;;10.43;6.95;;;8.80;99.90;;;;;;5025224;28;20022;-43
2022/02/08 06:58:00;;;;;;;14.60;7.70;;;8.80;99.90;;;;;;5025272;28;20032;-43
2022/02/08 07:00:34;;;;;;;11.25;6.82;;;8.90;99.90;;;;;;5026462;28;20021;-45
2022/02/08 07:03:03;;;;;;;14.10;7.15;;;8.90;99.90;;;;;;5027001;28;20034;-44
2022/02/08 07:05:29;;;;;;;9.82;6.45;;;8.90;99.90;;;;;;5025409;28;20033;-41
2022/02/08 07:07:54;;;;;;;13.63;6.72;;;8.90;99.90;;;;;;5027708;28;20048;-43
2022/02/08 07:10:20;;;;;;;11.13;6.07;;;8.90;99.90;;;;;;5025991;28;20523;-43
2022/02/08 07:12:45;;;;;;;12.30;6.00;;;8.90;99.90;;;;;;5027364;28;20022;-44
2022/02/08 07:15:14;;;;;;;13.38;6.70;;;8.90;99.90;;;;;;5027858;28;20561;-43
2022/02/08 07:17:40;;;;;;;15.20;7.10;;;8.90;99.90;;;;;;5027236;28;20025;-42
2022/02/08 07:20:06;;;;;;;12.15;6.75;;;8.90;99.90;;;;;;5027801;28;20084;-43
2022/02/08 07:22:32;;;;;;;12.52;6.07;;;9.00;99.90;;;;;;5027672;28;20045;-44
2022/02/08 07:24:58;;;;;;;9.82;5.95;;;9.00;99.90;;;;;;5028565;28;20029;-43
2022/02/08 07:27:25;;;;;;;18.63;7.30;;;9.00;99.90;;;;;;5025924;28;20038;-43
2022/02/08 07:29:52;;;;;;;11.82;6.32;;;9.10;99.90;;;;;;5024905;28;20030;-42
2022/02/08 07:32:26;;;;;;;13.07;6.68;;;9.10;99.90;;;;;;5024104;28;20037;-44
2022/02/08 07:34:59;;;;;;;13.07;6.50;;;9.20;99.90;;;;;;5026484;28;20037;-43
2022/02/08 07:37:44;;;;;;;11.75;5.60;;;9.20;99.90;;;;;;5025540;28;20084;-43
2022/02/08 07:42:59;;;;;;;13.23;5.32;;;9.30;99.90;;;;;;5024842;28;20068;-44
2022/02/08 07:45:25;;;;;;;11.38;4.75;;;9.30;99.90;;;;;;5024453;28;20068;-44
2022/02/08 07:47:52;;;;;;;9.35;4.20;;;9.30;99.90;;;;;;5025326;28;20473;-43
2022/02/08 07:50:25;;;;;;;9.85;4.10;;;9.40;99.90;;;;;;5026697;28;20034;-43
2022/02/08 07:52:51;;;;;;;8.20;4.22;;;9.40;99.90;;;;;;5027267;28;20021;-43
2022/02/08 07:55:18;;;;;;;7.65;3.33;;;9.40;99.90;;;;;;5022032;28;20029;-43
2022/02/08 07:57:43;;;;;;;12.88;4.13;;;9.40;99.90;;;;;;5020547;28;20088;-43
2022/02/08 08:00:09;;;;;;;9.88;3.75;;;9.40;99.90;;;;;;5026231;28;20033;-44
2022/02/08 08:02:39;;;;;;;8.05;3.58;;;9.50;99.90;;;;;;5026159;28;20069;-43
2022/02/08 08:05:06;;;;;;;11.57;4.28;;;9.50;99.90;;;;;;5026665;28;20056;-44
2022/02/08 08:07:31;;;;;;;8.68;3.40;;;9.50;99.90;;;;;;5025078;28;20560;-43
2022/02/08 08:09:58;;;;;;;11.05;3.35;;;9.50;99.90;;;;;;5027045;28;20041;-43
2022/02/08 08:12:24;;;;;;;11.10;3.53;;;9.50;99.90;;;;;;5025730;28;20035;-43
2022/02/08 08:14:51;;;;;;;12.10;3.08;;;9.60;99.90;;;;;;5025542;28;20025;-43
2022/02/08 08:19:55;;;;;;;7.95;2.75;;;9.60;99.90;;;;;;5022038;28;20037;-44
2022/02/08 08:22:20;;;;;;;9.10;2.80;;;9.70;99.90;;;;;;5024359;28;20029;-43
2022/02/08 08:24:47;;;;;;;7.45;2.70;;;9.60;99.90;;;;;;5026111;28;20103;-43
2022/02/08 08:27:14;;;;;;;8.30;2.50;;;9.70;99.90;;;;;;5025706;28;20116;-43
2022/02/08 08:29:40;;;;;;;7.95;2.53;;;9.70;99.90;;;;;;5025254;28;20116;-43
2022/02/08 08:32:07;;;;;;;8.15;2.55;;;9.70;99.90;;;;;;5025681;28;20069;-43
2022/02/08 08:34:34;;;;;;;9.20;2.60;;;9.80;99.90;;;;;;5025798;28;20072;-43
2022/02/08 08:37:00;;;;;;;6.80;2.20;;;9.80;99.90;;;;;;5025397;28;20031;-44
2022/02/08 08:39:33;;;;;;;9.07;2.25;;;9.80;99.90;;;;;;5024886;28;20029;-44
2022/02/08 08:52:17;;;;;;;4.97;1.48;;;10.00;99.90;;;;;;5025838;28;20041;-43
2022/02/08 08:54:43;;;;;;;7.72;1.70;;;10.10;99.90;;;;;;5024801;28;20052;-43
2022/02/08 08:57:08;;;;;;;5.57;1.88;;;10.10;99.90;;;;;;5024585;28;20034;-43
2022/02/08 08:59:34;;;;;;;5.72;1.55;;;10.20;99.90;;;;;;5025569;28;20017;-44
2022/02/08 09:01:59;;;;;;;6.35;1.75;;;10.20;99.90;;;;;;5025712;28;20030;-43
2022/02/08 09:04:32;;;;;;;5.45;1.80;;;10.20;99.90;;;;;;5024020;28;20823;-44
2022/02/08 09:06:58;;;;;;;7.35;1.70;;;10.30;99.90;;;;;;5014815;28;20472;-44
2022/02/08 09:09:25;;;;;;;4.97;1.67;;;10.30;99.90;;;;;;5024242;28;20022;-45
2022/02/08 09:12:15;;;;;;;7.70;2.00;;;10.40;99.90;;;;;;5024937;28;20029;-44
2022/02/08 09:15:30;;;;;;;5.50;1.50;;;10.40;99.90;;;;;;5025556;28;20025;-45
2022/02/08 09:18:01;;;;;;;8.35;1.60;;;10.50;99.90;;;;;;5011677;28;20615;-43
2022/02/08 09:20:54;;;;;;;6.57;1.80;;;10.50;99.90;;;;;;5024334;28;20026;-47
2022/02/08 09:31:02;;;;;;;8.93;2.00;;;10.50;99.90;;;;;;5025109;28;20037;-43
2022/02/08 09:33:28;;;;;;;9.02;2.17;;;10.40;99.90;;;;;;5023507;28;20033;-43
2022/02/08 09:35:55;;;;;;;7.00;1.80;;;10.50;99.90;;;;;;5024568;28;20032;-43
2022/02/08 09:38:21;;;;;;;5.90;1.77;;;10.40;99.90;;;;;;5024205;28;20091;-43
2022/02/08 09:40:50;;;;;;;8.43;2.00;;;10.40;99.90;;;;;;5024690;28;20037;-43
2022/02/08 09:43:17;;;;;;;9.13;1.60;;;10.40;99.90;;;;;;5023863;28;20022;-44
2022/02/08 09:45:50;;;;;;;6.45;1.80;;;10.40;99.90;;;;;;5024456;28;20025;-44
2022/02/08 09:48:26;;;;;;;7.47;1.83;;;10.50;99.90;;;;;;5023967;28;20091;-43
2022/02/08 09:50:52;;;;;;;5.43;1.63;;;10.50;99.90;;;;;;5025097;28;20025;-43
2022/02/08 09:53:30;;;;;;;6.32;1.63;;;10.60;99.90;;;;;;5022516;28;20045;-43
2022/02/08 09:55:56;;;;;;;5.68;1.50;;;10.70;99.90;;;;;;5025186;28;20030;-44
2022/02/08 09:58:21;;;;;;;7.50;1.52;;;10.80;99.90;;;;;;5024054;28;20514;-44
2022/02/08 10:00:47;;;;;;;5.50;1.45;;;10.90;99.90;;;;;;5024485;28;20583;-44
2022/02/08 10:03:16;;;;;;;5.28;1.67;;;11.00;99.90;;;;;;5024494;28;20044;-43
2022/02/08 10:05:49;;;;;;;6.47;1.52;;;11.00;99.90;;;;;;5027102;28;20029;-44
2022/02/08 10:08:15;;;;;;;5.72;1.52;;;11.00;99.90;;;;;;5027259;28;20071;-43
2022/02/08 10:10:42;;;;;;;7.20;1.70;;;11.10;99.90;;;;;;5028129;28;20469;-43
2022/02/08 10:24:10;;;;;;;7.35;1.83;;;11.40;99.90;;;;;;5028236;28;20037;-44
2022/02/08 10:30:13;;;;;;;7.15;1.55;;;11.40;99.90;;;;;;5027011;28;20049;-44
2022/02/08 10:37:46;;;;;;;4.65;1.80;;;11.50;99.90;;;;;;4996197;28;20041;-44
2022/02/08 10:40:19;;;;;;;7.53;2.33;;;11.50;99.90;;;;;;5017035;28;20932;-42
2022/02/08 10:42:53;;;;;;;6.68;1.63;;;11.50;99.90;;;;;;5025080;28;20574;-43
2022/02/08 10:45:20;;;;;;;7.63;1.50;;;11.50;99.90;;;;;;5015185;28;20101;-43
2022/02/08 10:47:50;;;;;;;6.75;1.52;;;11.50;99.90;;;;;;5025717;28;20048;-46
2022/02/08 10:50:16;;;;;;;7.72;1.52;;;11.50;99.90;;;;;;5025518;28;20028;-44
2022/02/08 10:52:43;;;;;;;7.53;1.75;;;11.50;99.90;;;;;;5025675;28;20025;-43
2022/02/08 10:55:25;;;;;;;5.55;1.25;;;11.50;99.90;;;;;;5022322;28;20030;-45
2022/02/08 10:58:08;;;;;;;7.07;1.40;;;11.50;99.90;;;;;;5026176;28;20029;-45
2022/02/08 11:00:43;;;;;;;6.30;1.40;;;11.60;99.90;;;;;;5024317;28;20518;-43
2022/02/08 11:03:15;;;;;;;5.43;1.42;;;11.60;99.90;;;;;;5025654;28;20084;-45
2022/02/08 11:05:57;;;;;;;6.13;1.30;;;11.60;99.90;;;;;;5025869;28;20028;-44
2022/02/08 11:11:19;;;;;;;5.88;1.75;;;11.70;99.90;;;;;;5025690;28;20524;-43
2022/02/08 11:19:59;;;;;;;6.68;1.60;;;11.80;99.90;;;;;;5024434;28;20543;-43
2022/02/08 11:22:47;;;;;;;5.50;1.50;;;11.90;99.90;;;;;;5025787;28;20438;-44
2022/02/08 11:25:24;;;;;;;6.43;1.40;;;11.90;99.90;;;;;;5024527;28;20092;-45
2022/02/08 11:27:55;;;;;;;3.75;1.10;;;11.90;99.90;;;;;;5026448;28;20037;-43
2022/02/08 11:30:29;;;;;;;5.15;1.60;;;12.00;99.90;;;;;;5024263;28;20068;-44
2022/02/08 11:33:23;;;;;;;6.30;1.30;;;12.10;99.90;;;;;;5024330;28;20488;-43
2022/02/08 11:42:53;;;;;;;3.42;1.20;;;12.20;99.90;;;;;;5026200;28;20032;-44
2022/02/08 11:45:07;;;;;;;4.38;1.35;;;12.20;99.90;;;;;;5025034;28;20053;-44
2022/02/08 11:49:02;;;;;;;6.93;2.55;;;12.30;99.90;;;;;;5015286;28;20034;-44
2022/02/08 11:51:03;;;;;;;6.05;1.75;;;12.30;99.90;;;;;;5006938;28;20893;-44
2022/02/08 11:53:39;;;;;;;4.70;1.50;;;12.30;99.90;;;;;;5023936;28;20116;-43
2022/02/08 11:58:43;;;;;;;6.80;1.58;;;12.30;99.90;;;;;;5024899;28;20065;-43
2022/02/08 12:01:19;;;;;;;6.03;1.80;;;12.40;99.90;;;;;;5024183;28;20622;-44
2022/02/08 12:08:52;;;;;;;7.53;1.70;;;12.40;99.90;;;;;;5024163;28;20045;-43
2022/02/08 12:27:01;;;;;;;7.93;1.73;;;12.50;99.90;;;;;;5024657;28;20049;-44
2022/02/08 12:33:16;;;;;;;4.80;1.40;;;12.60;99.90;;;;;;5023373;28;20038;-43
2022/02/08 12:35:59;;;;;;;5.75;2.28;;;12.60;99.90;;;;;;5024134;28;20055;-43
2022/02/08 12:39:45;;;;;;;10.35;1.50;;;12.60;99.90;;;;;;5023870;28;20052;-44
2022/02/08 12:50:21;;;;;;;6.88;1.75;;;12.60;99.90;;;;;;5013455;28;20052;-43
2022/02/08 12:53:33;;;;;;;7.38;1.38;;;12.50;99.90;;;;;;5023449;28;20782;-43
2022/02/08 12:55:51;;;;;;;8.02;1.63;;;12.50;99.90;;;;;;5023280;28;20041;-43
2022/02/08 12:58:31;;;;;;;7.43;1.50;;;12.50;99.90;;;;;;5023324;28;20400;-43
2022/02/08 13:01:40;;;;;;;3.47;1.27;;;12.50;99.90;;;;;;5024684;28;20036;-42
2022/02/08 13:04:23;;;;;;;6.18;1.83;;;12.50;99.90;;;;;;5024397;28;20110;-45
2022/02/08 13:14:34;;;;;;;4.45;1.17;;;12.40;99.90;;;;;;5026111;28;20022;-44
2022/02/08 14:01:42;;;;;;;5.25;1.00;;;12.20;99.90;;;;;;5024176;28;20123;-44
2022/02/08 14:06:53;;;;;;;6.72;1.45;;;12.20;99.90;;;;;;5022647;28;20531;-44
2022/02/08 14:14:44;;;;;;;4.18;1.00;;;12.30;99.90;;;;;;5022834;28;20037;-44
2022/02/08 14:19:40;;;;;;;6.55;1.80;;;12.40;99.90;;;;;;5023172;28;20703;-43
2022/02/08 14:30:04;;;;;;;4.13;1.15;;;12.40;99.90;;;;;;5025169;28;20044;-43
2022/02/08 14:32:43;;;;;;;7.07;1.30;;;12.40;99.90;;;;;;5023340;28;20030;-43
2022/02/08 15:07:59;;;;;;;6.65;1.50;;;12.30;99.90;;;;;;5022777;28;20037;-43
2022/02/08 15:10:34;;;;;;;2.70;0.70;;;12.30;99.90;;;;;;5018627;28;20077;-44
2022/02/08 15:13:01;;;;;;;4.75;1.10;;;12.20;99.90;;;;;;5027589;28;20656;-44
2022/02/08 15:15:40;;;;;;;6.35;1.20;;;12.20;99.90;;;;;;5027323;28;20572;-43
2022/02/08 15:18:06;;;;;;;3.53;1.02;;;12.20;99.90;;;;;;5027229;28;20029;-42
2022/02/08 15:20:31;;;;;;;4.07;0.90;;;12.20;99.90;;;;;;5027915;28;20024;-43
2022/02/08 15:22:59;;;;;;;4.47;1.00;;;12.20;99.90;;;;;;5028462;28;20034;-44
2022/02/08 15:25:27;;;;;;;3.63;1.05;;;12.20;99.90;;;;;;5026612;28;20528;-44
2022/02/08 15:27:54;;;;;;;5.65;1.20;;;12.20;99.90;;;;;;5027863;28;20377;-44
2022/02/08 15:30:19;;;;;;;3.70;1.20;;;12.10;99.90;;;;;;5027562;28;20232;-43
2022/02/08 15:32:46;;;;;;;6.97;1.48;;;12.10;99.90;;;;;;5027015;28;20083;-44
2022/02/08 15:35:12;;;;;;;4.30;0.90;;;12.10;99.90;;;;;;5027201;28;20026;-44
2022/02/08 15:37:37;;;;;;;4.05;1.20;;;12.10;99.90;;;;;;5026666;28;20513;-44
2022/02/08 15:40:09;;;;;;;5.28;1.52;;;12.10;99.90;;;;;;5027415;28;20025;-43
2022/02/08 15:42:39;;;;;;;5.47;1.17;;;12.10;99.90;;;;;;5027157;28;20115;-44
2022/02/08 15:45:26;;;;;;;4.75;0.90;;;12.00;99.90;;;;;;5026789;28;20021;-44
2022/02/08 15:47:52;;;;;;;4.10;1.27;;;12.00;99.90;;;;;;5027050;28;20638;-43
2022/02/08 15:50:29;;;;;;;3.38;1.15;;;12.00;99.90;;;;;;5026871;28;20742;-43
2022/02/08 15:56:07;;;;;;;5.47;1.30;;;12.00;99.90;;;;;;5027135;28;20041;-43
2022/02/08 16:01:39;;;;;;;4.20;1.02;;;11.90;99.90;;;;;;5026736;28;20124;-43
2022/02/08 16:09:44;;;;;;;4.18;1.17;;;11.80;99.90;;;;;;5025932;28;20400;-44
2022/02/08 16:12:26;;;;;;;2.92;0.90;;;11.80;99.90;;;;;;5027015;28;20828;-43
2022/02/08 16:15:17;;;;;;;3.22;0.90;;;11.80;99.90;;;;;;5025840;28;20029;-45
2022/02/08 16:17:56;;;;;;;3.10;1.00;;;11.80;99.90;;;;;;5006568;28;20132;-43
2022/02/08 16:20:52;;;;;;;4.60;1.65;;;11.80;99.90;;;;;;5021727;28;20031;-44
2022/02/08 16:23:50;;;;;;;2.15;0.75;;;11.80;99.90;;;;;;5006951;28;20046;-46
2022/02/08 16:31:35;;;;;;;4.30;1.10;;;11.80;99.90;;;;;;5026239;28;20429;-44
2022/02/08 16:51:34;;;;;;;4.78;1.20;;;11.60;99.90;;;;;;5025797;28;20064;-44
2022/02/08 16:56:22;;;;;;;3.95;1.27;;;11.60;99.90;;;;;;4975252;28;20090;-43
2022/02/08 16:58:53;;;;;;;2.95;1.10;;;11.60;99.90;;;;;;5026442;28;20036;-44
2022/02/08 17:01:24;;;;;;;3.97;1.20;;;11.60;99.90;;;;;;5025103;28;20188;-43
2022/02/08 17:03:51;;;;;;;3.97;1.15;;;11.50;99.90;;;;;;5025695;28;20140;-43
2022/02/08 17:06:27;;;;;;;4.80;1.55;;;11.60;99.90;;;;;;5025495;28;20025;-43
2022/02/08 17:09:04;;;;;;;3.78;1.15;;;11.50;99.90;;;;;;5026249;28;20079;-44
2022/02/08 17:11:40;;;;;;;2.97;1.25;;;11.60;99.90;;;;;;5025675;28;20083;-43
2022/02/08 17:16:49;;;;;;;4.03;1.50;;;11.50;99.90;;;;;;4986596;28;20341;-43
2022/02/08 17:19:44;;;;;;;3.65;1.48;;;11.50;99.90;;;;;;4957540;28;20061;-43
2022/02/08 17:37:01;;;;;;;5.25;1.40;;;11.50;99.90;;;;;;5026165;28;20032;-43
2022/02/08 17:47:00;;;;;;;4.88;1.90;;;11.50;99.90;;;;;;5025587;28;20602;-43
2022/02/08 17:49:26;;;;;;;2.92;1.50;;;11.50;99.90;;;;;;5014982;28;20037;-43
2022/02/08 17:51:51;;;;;;;3.25;1.23;;;11.50;99.90;;;;;;5024262;28;20021;-43
2022/02/08 17:54:17;;;;;;;3.28;1.00;;;11.50;99.90;;;;;;5025362;28;20022;-44
2022/02/08 17:56:43;;;;;;;5.18;1.50;;;11.50;99.90;;;;;;5025503;28;20036;-42
2022/02/08 17:59:09;;;;;;;4.03;1.48;;;11.40;99.90;;;;;;5023549;28;20108;-45
2022/02/08 18:01:35;;;;;;;7.60;1.30;;;11.40;99.90;;;;;;5025239;28;20060;-43
2022/02/08 18:04:00;;;;;;;2.60;1.00;;;11.40;99.90;;;;;;5024918;28;20049;-43
2022/02/08 18:06:26;;;;;;;4.97;1.40;;;11.40;99.90;;;;;;5024572;28;20075;-43
2022/02/08 18:08:51;;;;;;;3.88;1.15;;;11.30;99.90;;;;;;5025429;28;20495;-43
2022/02/08 18:11:17;;;;;;;2.92;1.15;;;11.30;99.90;;;;;;5024726;28;20021;-44
2022/02/08 18:13:44;;;;;;;5.60;1.33;;;11.30;99.90;;;;;;5024421;28;20514;-44
2022/02/08 18:16:10;;;;;;;3.47;1.42;;;11.20;99.90;;;;;;5024660;28;20069;-43
2022/02/08 18:18:42;;;;;;;3.78;1.33;;;11.20;99.90;;;;;;5024596;28;20056;-42
2022/02/08 18:21:15;;;;;;;3.92;1.42;;;11.10;99.90;;;;;;5024574;28;20051;-43
2022/02/08 18:56:09;;;;;;;2.45;1.60;;;10.70;99.90;;;;;;5021662;28;20092;-43
2022/02/08 19:09:28;;;;;;;3.47;2.05;;;10.70;99.90;;;;;;5027373;28;20542;-43
2022/02/08 19:19:51;;;;;;;5.22;2.42;;;10.60;99.90;;;;;;5028283;28;20116;-43
2022/02/08 19:22:17;;;;;;;7.75;2.85;;;10.60;99.90;;;;;;5027888;28;20464;-43
2022/02/08 19:24:46;;;;;;;6.22;2.92;;;10.60;99.90;;;;;;5028022;28;20645;-43
2022/02/08 19:27:12;;;;;;;4.97;2.60;;;10.50;99.90;;;;;;5027396;28;20022;-43
2022/02/08 19:29:37;;;;;;;4.85;2.58;;;10.50;99.90;;;;;;5026778;28;20021;-43
2022/02/08 19:32:07;;;;;;;5.47;2.25;;;10.40;99.90;;;;;;5028984;28;20025;-43
2022/02/08 19:34:37;;;;;;;8.73;2.72;;;10.40;99.90;;;;;;5029207;28;20029;-44